Time;durP1;ratioP1;P1;durP2;ratioP2;P2;SDS_P1;SDS_P2;PMS_P1;PMS_P2;Temp;Humidity;BMP_temperature;BMP_pressure;BME280_temperature;BME280_humidity;BME280_pressure;Samples;Min_cycle;Max_cycle;Signal;HPM_P1;HPM_P2
2023/01/06 00:01:26;;;;;;;5.77;3.37;;;3.10;99.90;;;;;;5113514;28;20337;-72
2023/01/06 00:03:58;;;;;;;4.77;4.10;;;3.00;99.90;;;;;;5113107;28;20183;-71
2023/01/06 00:06:30;;;;;;;5.63;3.50;;;3.00;99.90;;;;;;5112663;28;20200;-71
2023/01/06 00:09:01;;;;;;;5.07;3.20;;;3.00;99.90;;;;;;5113126;28;20270;-71
2023/01/06 00:11:31;;;;;;;3.83;3.20;;;3.00;99.90;;;;;;5113048;28;20237;-70
2023/01/06 00:14:00;;;;;;;8.13;4.00;;;3.00;99.90;;;;;;5112821;28;20257;-70
2023/01/06 00:16:29;;;;;;;6.13;3.37;;;3.00;99.90;;;;;;5113058;28;20240;-71
2023/01/06 00:19:00;;;;;;;4.83;3.70;;;3.00;99.90;;;;;;5094762;28;20196;-71
2023/01/06 00:21:31;;;;;;;8.97;4.57;;;3.00;99.90;;;;;;5112918;28;20738;-72
2023/01/06 00:24:00;;;;;;;5.93;3.83;;;3.00;99.90;;;;;;5112895;28;20201;-72
2023/01/06 00:26:28;;;;;;;4.77;3.23;;;3.10;99.90;;;;;;5112557;28;20573;-72
2023/01/06 00:28:58;;;;;;;10.03;5.10;;;3.10;99.90;;;;;;5112687;28;20189;-72
2023/01/06 00:31:27;;;;;;;7.63;3.70;;;3.20;99.90;;;;;;5094336;28;20206;-72
2023/01/06 00:33:57;;;;;;;8.37;4.80;;;3.20;99.90;;;;;;5094300;28;20235;-70
2023/01/06 00:36:26;;;;;;;6.47;4.30;;;3.20;99.90;;;;;;5112661;28;20196;-71
2023/01/06 00:38:56;;;;;;;10.57;6.40;;;3.10;99.90;;;;;;5094259;28;20203;-71
2023/01/06 00:44:11;;;;;;;14.90;7.40;;;3.00;99.90;;;;;;5112576;28;20196;-71
2023/01/06 00:46:41;;;;;;;9.43;4.30;;;3.00;99.90;;;;;;5093838;28;20277;-70
2023/01/06 00:49:10;;;;;;;5.27;3.60;;;3.00;99.90;;;;;;5112807;28;20191;-71
2023/01/06 00:51:40;;;;;;;7.07;4.13;;;2.90;99.90;;;;;;5094046;28;20574;-70
2023/01/06 00:54:12;;;;;;;5.00;3.93;;;2.90;99.90;;;;;;5112375;28;20215;-71
2023/01/06 00:56:42;;;;;;;12.37;5.83;;;2.90;99.90;;;;;;5112660;28;20188;-71
2023/01/06 00:59:13;;;;;;;10.70;4.80;;;2.90;99.90;;;;;;5094132;28;20215;-69
2023/01/06 01:01:43;;;;;;;7.73;4.10;;;2.90;99.90;;;;;;5094058;28;20205;-71
2023/01/06 01:04:14;;;;;;;9.50;5.13;;;2.90;99.90;;;;;;5112179;28;20203;-70
2023/01/06 01:06:45;;;;;;;7.10;4.60;;;2.80;99.90;;;;;;5094178;28;20196;-72
2023/01/06 01:09:17;;;;;;;7.03;4.73;;;2.90;99.90;;;;;;5094064;28;20294;-70
2023/01/06 01:14:32;;;;;;;6.73;4.10;;;2.90;99.90;;;;;;5112061;28;20663;-70
2023/01/06 01:17:03;;;;;;;4.10;3.20;;;2.80;99.90;;;;;;5112108;28;20192;-70
2023/01/06 01:19:32;;;;;;;5.90;3.10;;;2.90;99.90;;;;;;5112138;28;20196;-71
2023/01/06 01:22:01;;;;;;;6.90;3.67;;;2.80;99.90;;;;;;5112140;28;20243;-70
2023/01/06 01:24:31;;;;;;;6.27;3.87;;;2.90;99.90;;;;;;5093660;28;20231;-70
2023/01/06 01:27:00;;;;;;;4.80;3.50;;;2.90;99.90;;;;;;5093623;28;20597;-70
2023/01/06 01:29:29;;;;;;;4.77;3.87;;;2.80;99.90;;;;;;5111836;28;20191;-73
2023/01/06 01:31:58;;;;;;;5.90;4.17;;;2.80;99.90;;;;;;5093691;28;20222;-71
2023/01/06 01:34:28;;;;;;;4.87;3.37;;;2.80;99.90;;;;;;5093682;28;20269;-72
2023/01/06 01:36:57;;;;;;;4.77;3.73;;;2.90;99.90;;;;;;5111930;28;20204;-72
2023/01/06 01:39:28;;;;;;;4.37;3.70;;;2.80;99.90;;;;;;5093648;28;20196;-71
2023/01/06 01:41:59;;;;;;;8.30;3.70;;;2.90;99.90;;;;;;5111813;28;20196;-72
2023/01/06 01:44:55;;;;;;;3.90;2.90;;;2.90;99.90;;;;;;5111823;28;20194;-71
2023/01/06 01:47:30;;;;;;;4.90;3.40;;;2.80;99.90;;;;;;5111837;28;20267;-71
2023/01/06 01:50:07;;;;;;;5.23;3.27;;;2.80;99.90;;;;;;5111955;28;20194;-71
2023/01/06 01:52:36;;;;;;;5.17;4.00;;;2.70;99.90;;;;;;5111735;28;20626;-72
2023/01/06 01:55:08;;;;;;;6.67;4.63;;;2.70;99.90;;;;;;5111847;28;20273;-71
2023/01/06 01:57:45;;;;;;;9.43;4.33;;;2.80;99.90;;;;;;5093581;28;20304;-70
2023/01/06 02:00:14;;;;;;;5.27;3.27;;;2.80;99.90;;;;;;5111804;28;20191;-72
2023/01/06 02:02:43;;;;;;;3.47;3.13;;;2.80;99.90;;;;;;5111841;28;20734;-71
2023/01/06 02:05:16;;;;;;;5.07;3.40;;;2.80;99.90;;;;;;5093000;28;20210;-71
2023/01/06 02:07:46;;;;;;;3.67;2.90;;;2.80;99.90;;;;;;5093491;28;20208;-72
2023/01/06 02:10:17;;;;;;;5.97;3.47;;;2.70;99.90;;;;;;5111818;28;20204;-71
2023/01/06 02:12:50;;;;;;;5.40;4.17;;;2.80;99.90;;;;;;5093428;28;20199;-71
2023/01/06 02:15:22;;;;;;;5.03;3.90;;;2.60;99.90;;;;;;5093239;28;20203;-72
2023/01/06 02:18:26;;;;;;;9.27;3.93;;;2.60;99.90;;;;;;5111669;28;20198;-72
2023/01/06 02:21:13;;;;;;;5.60;3.40;;;2.60;99.90;;;;;;5111453;28;20279;-71
2023/01/06 02:24:15;;;;;;;5.83;3.80;;;2.60;99.90;;;;;;5111429;28;20208;-73
2023/01/06 02:27:20;;;;;;;7.27;3.43;;;2.60;99.90;;;;;;5093125;28;20238;-71
2023/01/06 02:30:30;;;;;;;5.87;4.23;;;2.60;99.90;;;;;;5096877;28;20200;-72
2023/01/06 02:33:13;;;;;;;4.57;3.60;;;2.60;99.90;;;;;;5096752;28;20192;-70
2023/01/06 02:36:05;;;;;;;5.37;4.07;;;2.50;99.90;;;;;;5115166;28;20282;-72
2023/01/06 02:38:45;;;;;;;5.73;3.60;;;2.50;99.90;;;;;;5096709;28;20607;-71
2023/01/06 02:41:28;;;;;;;4.47;3.17;;;2.50;99.90;;;;;;5096915;28;20232;-70
2023/01/06 02:44:03;;;;;;;4.97;3.77;;;2.50;99.90;;;;;;5096479;28;20262;-71
2023/01/06 02:46:57;;;;;;;6.27;2.97;;;2.60;99.90;;;;;;5096565;28;20200;-72
2023/01/06 02:49:33;;;;;;;4.90;3.60;;;2.60;99.90;;;;;;5096556;28;20205;-72
2023/01/06 02:52:13;;;;;;;4.40;3.13;;;2.60;99.90;;;;;;5096342;28;20311;-72
2023/01/06 02:54:56;;;;;;;4.07;2.90;;;2.60;99.90;;;;;;5114624;28;20826;-72
2023/01/06 02:57:31;;;;;;;5.93;3.53;;;2.50;99.90;;;;;;5114666;28;20259;-72
2023/01/06 03:00:10;;;;;;;3.53;3.23;;;2.60;99.90;;;;;;5096086;28;20200;-71
2023/01/06 03:02:41;;;;;;;3.57;3.20;;;2.60;99.90;;;;;;5130383;27;20208;-72
2023/01/06 03:05:15;;;;;;;3.57;3.23;;;2.70;99.90;;;;;;5096321;28;20204;-72
2023/01/06 03:07:47;;;;;;;3.50;3.20;;;2.60;99.90;;;;;;5096260;28;20219;-70
2023/01/06 03:10:19;;;;;;;5.40;3.00;;;2.50;99.90;;;;;;5095980;28;20205;-72
2023/01/06 03:12:52;;;;;;;5.50;3.70;;;2.40;99.90;;;;;;5096007;28;20292;-72
2023/01/06 03:15:23;;;;;;;3.13;2.93;;;2.50;99.90;;;;;;5095693;28;20235;-70
2023/01/06 03:17:53;;;;;;;6.93;3.13;;;2.60;99.90;;;;;;5095816;28;20294;-71
2023/01/06 03:20:23;;;;;;;5.17;3.00;;;2.60;99.90;;;;;;5095302;28;20669;-71
2023/01/06 03:22:53;;;;;;;8.80;3.77;;;2.60;99.90;;;;;;5095988;28;20227;-72
2023/01/06 03:25:22;;;;;;;6.33;3.67;;;2.70;99.90;;;;;;5095555;28;20203;-72
2023/01/06 03:27:52;;;;;;;6.47;3.27;;;2.60;99.90;;;;;;5095899;28;20215;-73
2023/01/06 03:30:31;;;;;;;3.70;3.23;;;2.60;99.90;;;;;;5095645;28;20299;-73
2023/01/06 03:33:06;;;;;;;5.73;3.70;;;2.60;99.90;;;;;;5095231;28;20254;-71
2023/01/06 03:35:53;;;;;;;7.73;3.50;;;2.70;99.90;;;;;;5095471;28;20227;-72
2023/01/06 03:38:31;;;;;;;5.70;3.90;;;2.50;99.90;;;;;;5095766;28;20223;-73
2023/01/06 03:41:09;;;;;;;8.33;4.63;;;2.50;99.90;;;;;;5112762;28;20674;-72
2023/01/06 03:43:44;;;;;;;6.40;3.37;;;2.60;99.90;;;;;;5095459;28;20291;-72
2023/01/06 03:46:24;;;;;;;5.57;3.50;;;2.60;99.90;;;;;;5113791;28;20199;-73
2023/01/06 03:49:00;;;;;;;6.30;3.23;;;2.60;99.90;;;;;;5113692;28;20602;-73
2023/01/06 03:51:45;;;;;;;5.23;3.10;;;2.60;99.90;;;;;;5113747;28;20189;-72
2023/01/06 03:54:25;;;;;;;3.70;3.33;;;2.60;99.90;;;;;;5113441;28;20712;-73
2023/01/06 03:57:02;;;;;;;7.43;4.03;;;2.60;99.90;;;;;;5095128;28;20571;-73
2023/01/06 03:59:36;;;;;;;6.83;3.87;;;2.60;99.90;;;;;;5095027;28;20213;-72
2023/01/06 04:02:05;;;;;;;5.07;3.40;;;2.60;99.90;;;;;;5094541;28;20634;-72
2023/01/06 04:04:35;;;;;;;5.73;3.90;;;2.60;99.90;;;;;;5095063;28;20199;-73
2023/01/06 04:07:06;;;;;;;4.67;3.00;;;2.60;99.90;;;;;;5113120;28;20833;-73
2023/01/06 04:09:39;;;;;;;5.20;3.60;;;2.60;99.90;;;;;;5094961;28;20207;-73
2023/01/06 04:14:54;;;;;;;5.83;4.10;;;2.50;99.90;;;;;;5112843;28;20715;-73
2023/01/06 04:17:24;;;;;;;6.13;3.30;;;2.60;99.90;;;;;;5094622;28;20261;-73
2023/01/06 04:19:52;;;;;;;7.23;3.43;;;2.50;99.90;;;;;;5094319;28;20254;-71
2023/01/06 04:22:23;;;;;;;4.40;3.57;;;2.50;99.80;;;;;;5094565;28;20283;-69
2023/01/06 04:24:52;;;;;;;4.90;2.93;;;2.50;99.90;;;;;;5112808;28;20574;-69
2023/01/06 04:27:21;;;;;;;4.63;3.13;;;2.50;99.90;;;;;;5094376;28;20664;-70
2023/01/06 04:29:50;;;;;;;5.63;3.40;;;2.50;99.90;;;;;;5112436;28;20715;-70
2023/01/06 04:32:19;;;;;;;4.73;2.90;;;2.40;99.90;;;;;;5094469;28;20207;-69
2023/01/06 04:34:48;;;;;;;4.40;3.17;;;2.40;99.90;;;;;;5094302;28;20260;-68
2023/01/06 04:37:18;;;;;;;3.60;3.17;;;2.40;99.90;;;;;;5094381;28;20601;-69
2023/01/06 04:39:50;;;;;;;6.50;3.73;;;2.40;99.90;;;;;;5094199;28;20207;-68
2023/01/06 04:42:19;;;;;;;7.10;4.10;;;2.30;99.90;;;;;;5112432;28;20187;-70
2023/01/06 04:44:48;;;;;;;5.73;3.60;;;2.30;99.90;;;;;;5112301;28;20251;-70
2023/01/06 04:47:17;;;;;;;4.37;3.57;;;2.40;99.90;;;;;;5112435;28;20753;-70
2023/01/06 04:49:46;;;;;;;6.07;3.60;;;2.40;99.90;;;;;;5112504;28;20271;-69
2023/01/06 04:52:16;;;;;;;6.00;3.40;;;2.40;99.90;;;;;;5112125;28;20598;-70
2023/01/06 04:54:45;;;;;;;5.33;3.40;;;2.40;99.90;;;;;;5112324;28;20218;-70
2023/01/06 04:57:15;;;;;;;3.70;3.40;;;2.40;99.90;;;;;;5112364;28;20592;-70
2023/01/06 04:59:44;;;;;;;6.53;3.77;;;2.40;99.90;;;;;;5112057;28;20203;-69
2023/01/06 05:02:13;;;;;;;5.50;3.60;;;2.40;99.90;;;;;;5112447;28;20188;-69
2023/01/06 05:04:42;;;;;;;7.60;4.37;;;2.40;99.90;;;;;;5112394;28;20187;-68
2023/01/06 05:07:15;;;;;;;6.00;3.90;;;2.50;99.90;;;;;;5112092;28;20211;-68
2023/01/06 05:09:44;;;;;;;7.33;4.00;;;2.40;99.90;;;;;;5112045;28;20195;-69
2023/01/06 05:12:14;;;;;;;5.73;4.00;;;2.40;99.90;;;;;;5112073;28;20204;-70
2023/01/06 05:14:43;;;;;;;7.13;4.20;;;2.40;99.90;;;;;;5112141;28;20192;-69
2023/01/06 05:17:12;;;;;;;5.57;3.83;;;2.40;99.90;;;;;;5112007;28;20554;-70
2023/01/06 05:19:43;;;;;;;13.33;7.53;;;2.40;99.90;;;;;;5111986;28;20200;-71
2023/01/06 05:22:12;;;;;;;17.60;8.43;;;2.40;99.90;;;;;;5111981;28;20658;-70
2023/01/06 05:24:41;;;;;;;11.57;5.30;;;2.40;99.90;;;;;;5111718;28;20200;-68
2023/01/06 05:27:10;;;;;;;5.80;4.10;;;2.40;99.90;;;;;;5111829;28;20273;-70
2023/01/06 05:29:42;;;;;;;5.40;4.07;;;2.40;99.90;;;;;;5111893;28;20196;-68
2023/01/06 05:32:10;;;;;;;4.13;3.30;;;2.40;99.90;;;;;;5111910;28;20666;-69
2023/01/06 05:34:39;;;;;;;4.40;3.53;;;2.40;99.90;;;;;;5111847;28;20203;-69
2023/01/06 05:37:08;;;;;;;6.87;3.60;;;2.40;99.90;;;;;;5111798;28;20283;-70
2023/01/06 05:39:37;;;;;;;7.47;4.37;;;2.40;99.90;;;;;;5111770;28;20236;-71
2023/01/06 05:42:06;;;;;;;5.97;4.13;;;2.50;99.90;;;;;;5111772;28;20233;-71
2023/01/06 05:44:35;;;;;;;4.97;4.00;;;2.50;99.90;;;;;;5111945;28;20258;-70
2023/01/06 05:47:05;;;;;;;4.97;3.60;;;2.50;99.90;;;;;;5111559;28;20743;-70
2023/01/06 05:49:34;;;;;;;4.53;3.10;;;2.30;99.90;;;;;;5111728;28;20219;-71
2023/01/06 05:52:03;;;;;;;4.47;4.07;;;2.40;99.90;;;;;;5111552;28;20330;-70
2023/01/06 05:54:32;;;;;;;5.90;4.13;;;2.40;99.90;;;;;;5111557;28;20217;-71
2023/01/06 05:57:01;;;;;;;5.77;3.77;;;2.30;99.90;;;;;;5111474;28;20224;-70
2023/01/06 05:59:30;;;;;;;5.87;5.17;;;2.30;99.90;;;;;;5111662;28;20203;-70
2023/01/06 06:01:59;;;;;;;8.43;6.00;;;2.30;99.90;;;;;;5111579;28;20231;-70
2023/01/06 06:04:29;;;;;;;15.17;7.57;;;2.30;99.90;;;;;;5114928;28;20196;-70
2023/01/06 06:06:58;;;;;;;8.43;5.40;;;2.20;99.90;;;;;;5115583;28;20600;-71
2023/01/06 06:09:27;;;;;;;7.10;4.67;;;2.20;99.90;;;;;;5115449;28;20286;-70
2023/01/06 06:11:55;;;;;;;22.37;10.80;;;2.20;99.90;;;;;;5115427;28;20218;-70
2023/01/06 06:14:25;;;;;;;9.10;7.17;;;2.20;99.40;;;;;;5115468;28;20603;-69
2023/01/06 06:16:55;;;;;;;11.63;9.73;;;2.30;99.90;;;;;;5115103;28;20251;-71
2023/01/06 06:19:23;;;;;;;11.27;6.40;;;2.30;99.90;;;;;;5115152;28;20211;-71
2023/01/06 06:21:54;;;;;;;16.60;9.13;;;2.20;97.90;;;;;;5115247;28;20203;-71
2023/01/06 06:24:23;;;;;;;13.70;8.57;;;2.20;96.10;;;;;;5115363;28;20559;-71
2023/01/06 06:26:52;;;;;;;15.63;10.93;;;2.10;99.10;;;;;;5114947;28;20315;-70
2023/01/06 06:29:21;;;;;;;35.10;22.63;;;2.20;99.90;;;;;;5114921;28;20677;-71
2023/01/06 06:31:50;;;;;;;79.60;43.50;;;2.30;99.90;;;;;;5114931;28;20245;-69
2023/01/06 06:34:18;;;;;;;20.37;13.60;;;2.30;99.90;;;;;;5115082;28;20718;-71
2023/01/06 06:36:47;;;;;;;14.73;10.13;;;2.20;98.00;;;;;;5114849;28;20219;-71
2023/01/06 06:39:18;;;;;;;10.33;7.73;;;2.10;99.90;;;;;;5115025;28;20196;-72
2023/01/06 06:41:47;;;;;;;8.77;5.50;;;2.10;97.60;;;;;;5114815;28;20203;-71
2023/01/06 06:44:16;;;;;;;11.13;6.43;;;2.10;99.90;;;;;;5114982;28;20192;-72
2023/01/06 06:46:45;;;;;;;11.40;6.73;;;2.10;99.90;;;;;;5114839;28;20211;-69
2023/01/06 06:49:13;;;;;;;9.37;5.73;;;2.20;99.90;;;;;;5114786;28;20324;-69
2023/01/06 06:51:46;;;;;;;10.33;6.50;;;2.20;99.90;;;;;;5114659;28;20228;-70
2023/01/06 06:54:15;;;;;;;51.50;34.00;;;2.20;99.20;;;;;;5116480;27;20203;-70
2023/01/06 06:56:45;;;;;;;20.33;14.17;;;2.30;99.90;;;;;;5123403;27;20216;-71
2023/01/06 06:59:14;;;;;;;55.73;33.33;;;2.30;99.90;;;;;;5131374;27;20202;-71
2023/01/06 07:01:43;;;;;;;47.87;30.53;;;2.30;99.90;;;;;;5135149;27;20281;-72
2023/01/06 07:04:12;;;;;;;37.67;28.53;;;2.30;99.90;;;;;;5131591;27;20276;-70
2023/01/06 07:06:41;;;;;;;20.13;17.00;;;2.20;99.90;;;;;;5114371;28;20602;-71
2023/01/06 07:09:10;;;;;;;12.83;10.37;;;2.30;99.90;;;;;;5114291;28;20264;-71
2023/01/06 07:11:39;;;;;;;10.70;7.37;;;2.30;99.90;;;;;;5114256;28;20219;-72
2023/01/06 07:14:09;;;;;;;12.00;6.37;;;2.20;98.20;;;;;;5131979;27;20210;-70
2023/01/06 07:16:38;;;;;;;10.10;6.80;;;1.80;98.80;;;;;;5126659;27;20230;-73
2023/01/06 07:19:09;;;;;;;11.73;7.17;;;1.90;96.70;;;;;;5120093;27;20375;-70
2023/01/06 07:21:38;;;;;;;7.73;5.77;;;1.90;99.90;;;;;;5135204;27;20195;-69
2023/01/06 07:24:07;;;;;;;7.77;5.03;;;1.90;99.90;;;;;;5134968;27;20194;-68
2023/01/06 07:26:36;;;;;;;43.13;19.00;;;1.70;99.90;;;;;;5134268;27;20321;-70
2023/01/06 07:29:05;;;;;;;16.90;10.80;;;1.80;99.90;;;;;;5134511;27;20203;-68
2023/01/06 07:31:36;;;;;;;15.30;9.57;;;1.90;99.90;;;;;;5134295;27;20569;-70
2023/01/06 07:34:05;;;;;;;17.13;10.00;;;1.90;99.90;;;;;;5134641;27;20200;-69
2023/01/06 07:36:33;;;;;;;6.30;5.40;;;2.00;99.90;;;;;;5133584;27;20272;-68
2023/01/06 07:39:03;;;;;;;14.80;7.97;;;1.80;99.90;;;;;;5131880;27;20664;-69
2023/01/06 07:41:32;;;;;;;14.10;8.90;;;1.70;99.90;;;;;;5117023;27;20196;-71
2023/01/06 07:44:01;;;;;;;11.50;8.03;;;1.80;99.90;;;;;;5134456;27;20199;-69
2023/01/06 07:46:30;;;;;;;17.30;12.27;;;2.00;99.90;;;;;;5119046;27;20748;-71
2023/01/06 07:49:00;;;;;;;9.23;7.27;;;2.10;99.90;;;;;;5119067;27;20289;-69
2023/01/06 07:51:29;;;;;;;8.67;5.87;;;2.00;98.30;;;;;;5133877;27;20287;-70
2023/01/06 07:53:58;;;;;;;7.07;5.87;;;1.80;98.60;;;;;;5133998;27;20290;-70
2023/01/06 07:56:27;;;;;;;6.03;5.43;;;1.80;97.80;;;;;;5133895;27;20718;-68
2023/01/06 07:58:56;;;;;;;8.30;6.50;;;1.70;99.80;;;;;;5133954;27;20199;-70
2023/01/06 08:01:25;;;;;;;7.47;6.63;;;1.60;99.90;;;;;;5133669;27;20226;-68
2023/01/06 08:03:54;;;;;;;9.60;6.57;;;1.40;98.20;;;;;;5133893;27;20203;-69
2023/01/06 08:06:24;;;;;;;7.77;6.13;;;1.50;99.90;;;;;;5133773;27;20298;-69
2023/01/06 08:08:53;;;;;;;17.13;11.63;;;1.60;99.90;;;;;;5131791;27;20207;-69
2023/01/06 08:11:22;;;;;;;7.13;5.87;;;1.60;99.90;;;;;;5124241;27;20580;-70
2023/01/06 08:13:51;;;;;;;9.20;5.57;;;1.60;99.90;;;;;;5140015;27;20198;-69
2023/01/06 08:16:20;;;;;;;9.47;5.87;;;1.50;99.90;;;;;;5129971;27;20198;-70
2023/01/06 08:18:49;;;;;;;14.50;9.00;;;1.30;99.90;;;;;;5116265;27;20207;-69
2023/01/06 08:21:18;;;;;;;10.17;5.63;;;1.50;99.90;;;;;;5143474;27;20202;-69
2023/01/06 08:23:48;;;;;;;8.20;6.03;;;1.50;99.90;;;;;;5154292;27;20191;-71
2023/01/06 08:26:18;;;;;;;18.73;10.20;;;1.70;99.90;;;;;;5153272;27;20263;-69
2023/01/06 08:28:47;;;;;;;9.80;8.20;;;1.70;99.90;;;;;;5154197;27;20187;-68
2023/01/06 08:31:19;;;;;;;12.33;11.07;;;1.70;99.90;;;;;;5135214;27;20210;-70
2023/01/06 08:33:48;;;;;;;12.97;8.40;;;1.90;99.90;;;;;;5154001;27;20255;-70
2023/01/06 08:36:19;;;;;;;16.77;11.23;;;1.80;97.10;;;;;;5147797;27;20191;-70
2023/01/06 08:38:50;;;;;;;21.50;16.23;;;1.90;99.90;;;;;;5154038;27;20202;-71
2023/01/06 08:41:19;;;;;;;21.90;18.03;;;1.80;96.60;;;;;;5126586;27;20739;-69
2023/01/06 08:43:49;;;;;;;6.37;5.07;;;1.80;99.90;;;;;;5133221;27;20259;-71
2023/01/06 08:46:20;;;;;;;15.03;10.83;;;1.50;96.30;;;;;;5112752;27;20320;-70
2023/01/06 08:48:49;;;;;;;9.33;5.97;;;1.70;99.90;;;;;;5112380;28;20199;-71
2023/01/06 08:51:20;;;;;;;11.00;7.07;;;1.60;97.60;;;;;;5114494;27;20261;-71
2023/01/06 08:53:50;;;;;;;10.30;6.43;;;1.70;99.90;;;;;;5133043;27;20203;-72
2023/01/06 08:56:21;;;;;;;10.20;7.17;;;1.60;96.70;;;;;;5132716;27;20198;-70
2023/01/06 08:58:52;;;;;;;11.27;7.17;;;1.30;97.10;;;;;;5132606;27;20222;-71
2023/01/06 09:01:24;;;;;;;17.37;10.27;;;1.40;99.90;;;;;;5132628;27;20665;-70
2023/01/06 09:03:53;;;;;;;17.83;13.17;;;1.60;99.30;;;;;;5127873;27;20752;-71
2023/01/06 09:06:22;;;;;;;14.10;10.57;;;1.70;99.10;;;;;;5112425;28;20553;-71
2023/01/06 09:08:54;;;;;;;16.10;12.00;;;1.80;99.90;;;;;;5112185;28;20238;-71
2023/01/06 09:11:24;;;;;;;17.87;12.60;;;1.90;99.90;;;;;;5112279;27;20287;-71
2023/01/06 09:13:53;;;;;;;9.63;6.47;;;2.00;99.90;;;;;;5132485;27;20248;-71
2023/01/06 09:16:22;;;;;;;7.30;6.00;;;1.90;99.20;;;;;;5117828;27;20233;-71
2023/01/06 09:18:53;;;;;;;14.73;7.30;;;1.80;99.80;;;;;;5094267;28;20223;-71
2023/01/06 09:21:23;;;;;;;9.63;5.80;;;1.80;99.90;;;;;;5112048;28;20649;-71
2023/01/06 09:23:53;;;;;;;11.07;6.80;;;1.80;99.90;;;;;;5129934;28;20226;-71
2023/01/06 09:26:23;;;;;;;9.07;6.90;;;1.70;99.90;;;;;;5132127;28;20285;-70
2023/01/06 09:28:51;;;;;;;13.17;9.00;;;1.70;99.90;;;;;;5132415;28;20252;-68
2023/01/06 09:31:20;;;;;;;9.27;5.63;;;1.60;99.90;;;;;;5132593;28;20665;-71
2023/01/06 09:33:49;;;;;;;8.17;6.30;;;1.50;99.90;;;;;;5132407;28;20224;-68
2023/01/06 09:36:18;;;;;;;9.07;6.30;;;1.70;99.90;;;;;;5120498;28;20214;-71
2023/01/06 09:38:47;;;;;;;6.53;5.27;;;1.80;99.90;;;;;;5114232;28;20222;-72
2023/01/06 09:41:43;;;;;;;14.60;7.97;;;1.60;99.20;;;;;;5116153;28;20200;-70
2023/01/06 09:44:16;;;;;;;9.40;6.60;;;1.80;99.90;;;;;;5116045;28;20192;-69
2023/01/06 09:46:48;;;;;;;10.57;5.53;;;1.80;99.90;;;;;;5097651;28;20199;-70
2023/01/06 09:49:25;;;;;;;7.73;5.23;;;1.70;99.80;;;;;;5115977;28;20265;-72
2023/01/06 09:51:56;;;;;;;8.80;5.17;;;1.70;99.90;;;;;;5116028;28;20199;-71
2023/01/06 09:54:29;;;;;;;9.03;5.57;;;1.90;99.90;;;;;;5115947;28;20195;-71
2023/01/06 09:57:05;;;;;;;7.80;5.63;;;1.70;99.90;;;;;;5145021;27;20676;-70
2023/01/06 09:59:41;;;;;;;10.40;6.27;;;1.30;99.90;;;;;;5157130;27;20247;-71
2023/01/06 10:02:16;;;;;;;12.63;7.50;;;1.40;99.90;;;;;;5156847;27;20197;-70
2023/01/06 10:04:45;;;;;;;12.80;8.37;;;1.50;99.90;;;;;;5128441;27;20236;-71
2023/01/06 10:07:19;;;;;;;10.17;6.47;;;1.50;99.90;;;;;;5129901;27;20293;-69
2023/01/06 10:09:58;;;;;;;7.90;5.73;;;1.30;99.90;;;;;;5146401;27;20259;-70
2023/01/06 10:12:46;;;;;;;30.83;14.63;;;1.30;99.90;;;;;;5156701;27;20187;-69
2023/01/06 10:15:21;;;;;;;9.80;6.53;;;1.50;99.90;;;;;;5142561;27;20983;-70
2023/01/06 10:18:03;;;;;;;19.13;8.53;;;1.40;99.90;;;;;;5129251;27;20267;-68
2023/01/06 10:20:52;;;;;;;12.03;6.53;;;1.60;99.90;;;;;;5115286;28;20578;-72
2023/01/06 10:23:35;;;;;;;29.80;12.40;;;1.60;99.90;;;;;;5127719;27;20243;-72
2023/01/06 10:26:11;;;;;;;5.80;4.83;;;1.50;99.90;;;;;;5135524;27;20230;-71
2023/01/06 10:28:44;;;;;;;10.77;7.47;;;1.40;99.90;;;;;;5130539;27;20220;-72
2023/01/06 10:31:17;;;;;;;9.43;6.80;;;1.60;99.90;;;;;;5114990;28;20261;-68
2023/01/06 10:33:50;;;;;;;11.87;6.43;;;1.70;99.90;;;;;;5114985;28;20227;-69
2023/01/06 10:36:27;;;;;;;12.37;6.77;;;1.70;99.90;;;;;;5115259;28;20219;-71
2023/01/06 10:38:58;;;;;;;21.07;11.83;;;1.50;99.90;;;;;;5114911;28;20301;-70
2023/01/06 10:41:34;;;;;;;12.03;7.50;;;1.60;99.90;;;;;;5114919;28;20203;-71
2023/01/06 10:44:05;;;;;;;15.07;9.40;;;1.50;99.90;;;;;;5128983;27;20218;-68
2023/01/06 10:46:36;;;;;;;9.40;5.93;;;1.70;99.90;;;;;;5135514;27;20274;-69
2023/01/06 10:49:08;;;;;;;5.77;4.60;;;1.70;99.90;;;;;;5134598;27;20206;-69
2023/01/06 10:51:39;;;;;;;9.17;5.00;;;1.50;99.90;;;;;;5135186;27;20194;-70
2023/01/06 10:54:12;;;;;;;6.83;4.53;;;1.20;99.90;;;;;;5135071;27;20737;-70
2023/01/06 10:56:46;;;;;;;7.80;4.90;;;1.30;99.90;;;;;;5135020;27;20274;-69
2023/01/06 10:59:17;;;;;;;14.93;8.93;;;1.30;99.90;;;;;;5135207;27;20229;-70
2023/01/06 11:01:50;;;;;;;6.73;4.83;;;1.50;99.90;;;;;;5145557;27;20199;-69
2023/01/06 11:04:20;;;;;;;7.43;5.10;;;1.20;99.40;;;;;;5155748;27;20186;-70
2023/01/06 11:06:56;;;;;;;7.13;5.60;;;1.10;99.90;;;;;;5155640;27;20751;-69
2023/01/06 11:09:31;;;;;;;7.43;4.73;;;1.10;99.90;;;;;;5155722;27;20202;-69
2023/01/06 11:12:03;;;;;;;8.50;5.03;;;1.40;99.90;;;;;;5123925;27;20202;-73
2023/01/06 11:14:34;;;;;;;5.60;4.37;;;1.30;99.90;;;;;;5121242;27;20192;-69
2023/01/06 11:17:07;;;;;;;13.50;7.43;;;1.30;99.90;;;;;;5114070;28;20561;-70
2023/01/06 11:19:38;;;;;;;7.87;4.90;;;1.30;99.90;;;;;;5113922;28;20261;-68
2023/01/06 11:22:33;;;;;;;6.80;4.90;;;1.10;99.90;;;;;;5122672;27;20195;-70
2023/01/06 11:25:04;;;;;;;15.00;8.20;;;1.20;99.90;;;;;;5134563;27;20326;-69
2023/01/06 11:27:33;;;;;;;12.03;7.23;;;1.10;99.90;;;;;;5134525;27;20268;-71
2023/01/06 11:30:22;;;;;;;25.73;15.97;;;1.40;99.90;;;;;;5134698;27;20198;-70
2023/01/06 11:32:51;;;;;;;12.90;8.07;;;1.60;99.90;;;;;;5134598;27;20613;-70
2023/01/06 11:35:24;;;;;;;8.53;6.33;;;1.50;99.90;;;;;;5117707;27;20618;-71
2023/01/06 11:37:58;;;;;;;9.27;6.47;;;1.30;99.90;;;;;;5117202;27;20207;-69
2023/01/06 11:40:31;;;;;;;10.97;6.90;;;1.50;99.90;;;;;;5134286;27;20238;-72
2023/01/06 11:43:06;;;;;;;14.23;9.00;;;1.40;99.90;;;;;;5114021;28;20256;-71
2023/01/06 11:45:40;;;;;;;9.27;6.20;;;1.40;99.90;;;;;;5125903;27;20550;-72
2023/01/06 11:48:16;;;;;;;9.23;6.60;;;1.50;99.90;;;;;;5134192;27;20188;-71
2023/01/06 11:50:54;;;;;;;27.23;16.37;;;1.60;99.90;;;;;;5134219;27;20773;-72
2023/01/06 11:53:24;;;;;;;17.53;10.10;;;1.80;99.90;;;;;;5134228;27;20195;-72
2023/01/06 11:55:58;;;;;;;15.10;8.87;;;1.70;99.90;;;;;;5134058;27;20183;-69
2023/01/06 11:58:43;;;;;;;13.07;7.80;;;1.70;99.90;;;;;;5128109;27;20219;-70
2023/01/06 12:01:21;;;;;;;25.17;16.40;;;1.60;99.90;;;;;;5112430;28;20199;-69
2023/01/06 12:03:53;;;;;;;20.40;12.87;;;1.90;99.90;;;;;;5132554;27;20235;-70
2023/01/06 12:06:29;;;;;;;23.60;11.73;;;1.80;99.90;;;;;;5154766;27;20192;-74
2023/01/06 12:09:03;;;;;;;14.53;9.90;;;1.80;99.90;;;;;;5154692;27;20202;-72
2023/01/06 12:11:44;;;;;;;47.70;21.50;;;1.90;99.90;;;;;;5154541;27;20634;-70
2023/01/06 12:14:15;;;;;;;12.20;9.00;;;1.90;99.90;;;;;;5154362;27;20198;-70
2023/01/06 12:17:04;;;;;;;23.67;12.00;;;1.70;99.90;;;;;;5154394;27;20198;-69
2023/01/06 12:19:39;;;;;;;35.20;19.03;;;1.50;99.90;;;;;;5154227;27;20218;-69
2023/01/06 12:22:22;;;;;;;25.30;13.93;;;1.60;99.90;;;;;;5154299;27;20197;-71
2023/01/06 12:24:53;;;;;;;19.37;12.23;;;1.60;99.90;;;;;;5154234;27;20191;-72
2023/01/06 12:27:31;;;;;;;27.73;15.57;;;1.50;99.90;;;;;;5154031;27;20595;-71
2023/01/06 12:30:05;;;;;;;13.03;8.50;;;1.50;99.90;;;;;;5154328;27;20182;-72
2023/01/06 12:32:41;;;;;;;14.03;9.53;;;1.20;99.90;;;;;;5154241;27;20219;-73
2023/01/06 12:35:16;;;;;;;15.20;9.00;;;1.10;99.90;;;;;;5132462;27;20195;-74
2023/01/06 12:37:50;;;;;;;14.83;8.87;;;1.20;99.90;;;;;;5121050;27;20221;-73
2023/01/06 12:40:28;;;;;;;24.20;14.43;;;1.20;99.90;;;;;;5120667;27;20231;-72
2023/01/06 12:43:04;;;;;;;45.07;23.10;;;1.30;99.90;;;;;;5113207;28;20249;-70
2023/01/06 12:45:42;;;;;;;17.53;9.77;;;1.30;99.90;;;;;;5133102;27;20225;-72
2023/01/06 12:48:26;;;;;;;23.87;13.17;;;1.30;99.90;;;;;;5112959;28;20676;-70
2023/01/06 12:51:05;;;;;;;32.27;17.30;;;1.30;99.90;;;;;;5112636;28;20645;-70
2023/01/06 12:53:40;;;;;;;25.03;12.47;;;1.40;99.90;;;;;;5112434;28;20199;-70
2023/01/06 12:56:30;;;;;;;17.60;10.40;;;1.20;99.90;;;;;;5112296;28;20293;-71
2023/01/06 12:59:10;;;;;;;17.33;10.77;;;1.10;99.90;;;;;;5112206;28;20219;-68
2023/01/06 13:01:45;;;;;;;60.47;27.50;;;1.00;99.90;;;;;;5131314;27;20201;-72
2023/01/06 13:04:52;;;;;;;43.83;22.30;;;1.20;99.90;;;;;;5153448;27;20609;-71
2023/01/06 13:07:34;;;;;;;111.50;53.30;;;1.20;99.90;;;;;;5049538;28;20201;-70
2023/01/06 13:10:17;;;;;;;20.63;12.73;;;1.50;99.90;;;;;;5049442;28;20217;-67
2023/01/06 13:13:02;;;;;;;17.40;10.87;;;1.30;99.90;;;;;;5049283;28;20313;-67
2023/01/06 13:15:32;;;;;;;20.67;11.37;;;1.00;99.90;;;;;;5049649;28;20194;-71
2023/01/06 13:18:11;;;;;;;18.27;10.37;;;0.70;99.90;;;;;;5032992;28;20951;-70
2023/01/06 13:20:44;;;;;;;32.80;15.90;;;0.60;99.90;;;;;;5012571;28;20238;-70
2023/01/06 13:23:31;;;;;;;22.53;12.77;;;0.60;99.90;;;;;;5013682;28;20218;-71
2023/01/06 13:26:26;;;;;;;18.17;10.93;;;0.60;99.90;;;;;;5029150;28;20230;-71
2023/01/06 13:29:10;;;;;;;82.13;34.83;;;0.60;99.90;;;;;;5027627;28;20619;-69